Time;durP1;ratioP1;P1;durP2;ratioP2;P2;SDS_P1;SDS_P2;PMS_P1;PMS_P2;Temp;Humidity;BMP_temperature;BMP_pressure;BME280_temperature;BME280_humidity;BME280_pressure;Samples;Min_cycle;Max_cycle;Signal;HPM_P1;HPM_P2
2024/01/28 00:01:32;;;;;;;10.88;3.70;;;5.00;99.90;;;;;;5107803;28;20269;-76
2024/01/28 00:03:58;;;;;;;10.05;4.53;;;5.00;99.90;;;;;;5117536;27;20174;-76
2024/01/28 00:06:24;;;;;;;11.70;4.03;;;4.90;99.90;;;;;;5093360;27;20262;-77
2024/01/28 00:08:49;;;;;;;5.10;2.67;;;4.90;99.90;;;;;;5103815;28;20679;-76
2024/01/28 00:11:15;;;;;;;7.90;3.70;;;4.90;99.90;;;;;;5083597;27;20255;-76
2024/01/28 00:13:41;;;;;;;9.23;3.43;;;5.00;99.90;;;;;;5110947;28;20660;-76
2024/01/28 00:16:16;;;;;;;8.27;3.23;;;5.00;99.90;;;;;;5120259;27;20290;-76
2024/01/28 00:18:41;;;;;;;13.77;4.72;;;5.00;99.90;;;;;;5092817;27;20221;-76
2024/01/28 00:21:07;;;;;;;5.03;2.50;;;4.90;99.90;;;;;;5105679;27;20615;-76
2024/01/28 00:23:33;;;;;;;7.27;3.30;;;4.90;99.90;;;;;;5096726;27;20206;-76
2024/01/28 00:26:02;;;;;;;9.90;3.10;;;4.90;99.90;;;;;;5093895;28;20179;-76
2024/01/28 00:28:28;;;;;;;5.03;3.20;;;4.80;99.90;;;;;;5076409;28;20711;-77
2024/01/28 00:30:54;;;;;;;10.00;3.40;;;4.80;99.90;;;;;;5086779;28;20213;-76
2024/01/28 00:33:19;;;;;;;9.53;3.87;;;4.80;99.90;;;;;;5108244;28;20667;-76
2024/01/28 00:35:45;;;;;;;10.37;3.30;;;4.80;99.90;;;;;;5093046;28;20585;-76
2024/01/28 00:38:11;;;;;;;7.90;3.80;;;4.80;99.90;;;;;;5123789;27;20295;-76
2024/01/28 00:40:37;;;;;;;8.60;3.40;;;4.80;99.90;;;;;;5129248;27;20174;-76
2024/01/28 00:43:03;;;;;;;5.77;2.87;;;4.80;99.90;;;;;;5094059;28;20577;-76
2024/01/28 00:45:29;;;;;;;9.35;3.28;;;4.80;99.90;;;;;;5115219;28;20174;-77
2024/01/28 00:47:55;;;;;;;10.73;3.28;;;4.80;99.90;;;;;;5110826;28;20337;-76
2024/01/28 00:50:21;;;;;;;5.97;3.28;;;4.70;99.90;;;;;;5075678;28;20175;-76
2024/01/28 00:52:48;;;;;;;6.83;3.23;;;4.70;99.90;;;;;;5106203;27;20217;-76
2024/01/28 00:55:14;;;;;;;9.13;2.95;;;4.70;99.90;;;;;;5113160;27;20168;-76
2024/01/28 00:57:41;;;;;;;5.18;2.78;;;4.70;99.90;;;;;;5112534;27;20205;-76
2024/01/28 01:00:07;;;;;;;6.57;3.05;;;4.70;99.90;;;;;;5099379;28;20170;-76
2024/01/28 01:02:33;;;;;;;7.25;3.58;;;4.70;99.90;;;;;;5111042;28;20187;-76
2024/01/28 01:04:59;;;;;;;10.55;2.95;;;4.70;99.90;;;;;;5100099;27;20264;-76
2024/01/28 01:07:26;;;;;;;7.00;2.60;;;4.70;99.90;;;;;;5093468;28;20258;-77
2024/01/28 01:09:52;;;;;;;10.68;3.53;;;4.70;99.90;;;;;;5083451;28;20187;-76
2024/01/28 01:12:18;;;;;;;11.70;3.43;;;4.60;99.90;;;;;;5081320;28;20206;-77
2024/01/28 01:14:43;;;;;;;9.03;2.90;;;4.60;99.90;;;;;;5130130;28;20170;-76
2024/01/28 01:17:09;;;;;;;8.50;3.37;;;4.60;99.90;;;;;;5131019;28;20548;-75
2024/01/28 01:19:35;;;;;;;7.73;3.40;;;4.60;99.90;;;;;;5095253;28;20659;-75
2024/01/28 01:22:02;;;;;;;10.30;3.30;;;4.60;99.90;;;;;;5112396;28;20178;-75
2024/01/28 01:24:28;;;;;;;7.07;3.30;;;4.60;99.90;;;;;;5106539;28;20281;-75
2024/01/28 01:26:54;;;;;;;8.03;3.43;;;4.60;99.90;;;;;;5112654;28;20220;-75
2024/01/28 01:29:20;;;;;;;5.68;3.13;;;4.60;99.90;;;;;;5111997;28;21255;-75
2024/01/28 01:31:47;;;;;;;11.00;3.30;;;4.60;99.90;;;;;;5112579;28;20193;-75
2024/01/28 01:34:13;;;;;;;5.38;2.88;;;4.60;99.90;;;;;;5097345;28;20630;-75
2024/01/28 01:36:48;;;;;;;5.30;2.45;;;4.60;99.90;;;;;;5087713;28;20166;-75
2024/01/28 01:39:16;;;;;;;6.13;3.20;;;4.50;99.90;;;;;;5112187;28;20561;-75
2024/01/28 01:41:43;;;;;;;8.30;2.70;;;4.50;99.90;;;;;;5112864;28;20265;-75
2024/01/28 01:44:10;;;;;;;5.57;2.00;;;4.50;99.90;;;;;;5089014;28;20257;-77
2024/01/28 01:46:38;;;;;;;11.35;2.95;;;4.50;99.90;;;;;;5102199;28;20550;-75
2024/01/28 01:49:05;;;;;;;5.25;2.70;;;4.50;99.90;;;;;;5105097;28;20194;-77
2024/01/28 01:51:32;;;;;;;6.32;2.78;;;4.50;99.90;;;;;;5129235;27;20202;-77
2024/01/28 01:53:59;;;;;;;5.88;2.75;;;4.50;99.90;;;;;;5136676;22;20721;-74
2024/01/28 01:56:27;;;;;;;8.85;3.40;;;4.50;99.90;;;;;;5075664;28;20222;-74
2024/01/28 01:58:53;;;;;;;8.80;2.75;;;4.50;99.90;;;;;;5058221;28;20176;-74
2024/01/28 02:01:19;;;;;;;4.72;2.70;;;4.50;99.90;;;;;;5080634;28;20203;-74
2024/01/28 02:03:45;;;;;;;5.65;2.35;;;4.50;99.90;;;;;;5047401;28;20625;-74
2024/01/28 02:06:14;;;;;;;3.80;2.10;;;4.50;99.90;;;;;;5038764;28;20215;-74
2024/01/28 02:08:40;;;;;;;5.68;2.83;;;4.50;99.90;;;;;;5070473;28;20180;-74
2024/01/28 02:11:07;;;;;;;10.43;2.90;;;4.50;99.90;;;;;;5072043;28;20191;-74
2024/01/28 02:13:34;;;;;;;6.25;2.90;;;4.40;99.90;;;;;;5075525;28;20187;-74
2024/01/28 02:15:59;;;;;;;5.63;2.65;;;4.50;99.90;;;;;;5075266;28;20537;-74
2024/01/28 02:18:25;;;;;;;7.00;2.47;;;4.50;99.90;;;;;;5093918;28;20178;-74
2024/01/28 02:20:51;;;;;;;5.50;3.07;;;4.50;99.90;;;;;;5078273;28;20213;-74
2024/01/28 02:23:21;;;;;;;8.37;2.67;;;4.50;99.90;;;;;;5058049;28;20178;-73
2024/01/28 02:25:47;;;;;;;11.23;3.72;;;4.50;99.90;;;;;;5058397;28;20254;-74
2024/01/28 02:28:13;;;;;;;7.97;3.13;;;4.40;99.90;;;;;;5055258;28;20186;-73
2024/01/28 02:30:38;;;;;;;6.40;3.20;;;4.40;99.90;;;;;;5093067;28;20171;-74
2024/01/28 02:33:04;;;;;;;7.57;2.80;;;4.40;99.90;;;;;;5073932;28;20714;-74
2024/01/28 02:35:30;;;;;;;5.90;2.20;;;4.50;99.90;;;;;;5075019;28;20285;-74
2024/01/28 02:37:55;;;;;;;9.07;3.00;;;4.50;99.90;;;;;;5092665;28;20585;-75
2024/01/28 02:40:21;;;;;;;6.87;2.87;;;4.50;99.90;;;;;;5071146;28;20203;-74
2024/01/28 02:42:47;;;;;;;5.33;2.40;;;4.50;99.90;;;;;;5089417;28;20710;-74
2024/01/28 02:45:13;;;;;;;7.37;2.80;;;4.50;99.90;;;;;;5074834;28;20199;-74
2024/01/28 02:47:38;;;;;;;9.07;3.08;;;4.50;99.90;;;;;;5092858;28;20641;-74
2024/01/28 02:50:04;;;;;;;5.53;1.97;;;4.50;99.90;;;;;;5092203;28;20232;-74
2024/01/28 02:52:30;;;;;;;7.65;2.58;;;4.50;99.90;;;;;;5092693;28;20215;-74
2024/01/28 02:54:56;;;;;;;4.87;2.23;;;4.50;99.90;;;;;;5092342;28;20693;-74
2024/01/28 02:57:22;;;;;;;7.37;2.20;;;4.50;99.90;;;;;;5072990;28;20181;-74
2024/01/28 02:59:47;;;;;;;6.10;2.20;;;4.50;99.90;;;;;;5088324;28;20174;-74
2024/01/28 03:02:13;;;;;;;6.37;3.00;;;4.50;99.90;;;;;;5056709;28;20689;-74
2024/01/28 03:04:39;;;;;;;6.43;2.27;;;4.50;99.90;;;;;;5092239;28;20302;-74
2024/01/28 03:07:06;;;;;;;6.35;2.33;;;4.50;99.90;;;;;;5055916;28;20270;-74
2024/01/28 03:09:31;;;;;;;5.72;2.67;;;4.50;99.90;;;;;;5053768;28;20212;-74
2024/01/28 03:11:57;;;;;;;6.13;2.30;;;4.50;99.90;;;;;;5057195;28;20242;-74
2024/01/28 03:14:23;;;;;;;5.78;2.50;;;4.50;99.90;;;;;;5053611;28;20191;-74
2024/01/28 03:16:49;;;;;;;4.20;2.90;;;4.50;99.90;;;;;;5093048;28;20254;-74
2024/01/28 03:19:15;;;;;;;8.10;3.00;;;4.50;99.90;;;;;;5090610;28;20199;-74
2024/01/28 03:21:41;;;;;;;4.63;2.10;;;4.50;99.90;;;;;;5073914;28;20180;-74
2024/01/28 03:24:07;;;;;;;11.50;2.77;;;4.50;99.90;;;;;;5072650;28;20200;-74
2024/01/28 03:26:35;;;;;;;5.10;2.30;;;4.50;99.90;;;;;;5059908;28;20720;-74
2024/01/28 03:29:02;;;;;;;6.70;3.38;;;4.40;99.90;;;;;;5089148;28;20581;-74
2024/01/28 03:31:28;;;;;;;4.13;2.20;;;4.50;99.90;;;;;;5070646;28;20207;-74
2024/01/28 03:33:54;;;;;;;9.77;2.93;;;4.40;99.90;;;;;;5091233;28;20203;-74
2024/01/28 03:36:20;;;;;;;3.33;2.00;;;4.40;99.90;;;;;;5070425;28;20169;-75
2024/01/28 03:38:45;;;;;;;6.90;2.50;;;4.40;99.90;;;;;;5070180;28;20222;-74
2024/01/28 03:41:13;;;;;;;4.10;2.60;;;4.40;99.90;;;;;;5072506;28;20628;-74
2024/01/28 03:43:39;;;;;;;7.93;2.53;;;4.40;99.90;;;;;;5091908;28;20599;-74
2024/01/28 03:46:09;;;;;;;4.88;2.58;;;4.50;99.90;;;;;;5091397;28;20270;-74
2024/01/28 03:48:35;;;;;;;7.53;2.92;;;4.40;99.90;;;;;;5070125;28;20203;-74
2024/01/28 03:51:01;;;;;;;5.97;2.17;;;4.40;99.90;;;;;;5088522;28;20284;-74
2024/01/28 03:53:27;;;;;;;6.65;2.83;;;4.50;99.90;;;;;;5070094;28;20188;-74
2024/01/28 03:55:53;;;;;;;6.80;3.33;;;4.50;99.90;;;;;;5073510;28;20175;-74
2024/01/28 03:58:18;;;;;;;5.60;2.30;;;4.40;99.90;;;;;;5091382;28;20168;-74
2024/01/28 04:00:44;;;;;;;5.80;2.30;;;4.50;99.90;;;;;;5069485;28;20172;-74
2024/01/28 04:03:10;;;;;;;3.00;2.07;;;4.40;99.90;;;;;;5073055;28;20207;-74
2024/01/28 04:05:36;;;;;;;9.70;2.28;;;4.50;99.90;;;;;;5069905;28;20565;-74
2024/01/28 04:08:02;;;;;;;8.90;3.07;;;4.40;99.90;;;;;;5087911;28;20172;-75
2024/01/28 04:10:28;;;;;;;7.13;2.80;;;4.40;99.90;;;;;;5083515;28;20548;-74
2024/01/28 04:12:53;;;;;;;7.50;2.57;;;4.40;99.90;;;;;;5093925;28;20195;-75
2024/01/28 04:15:19;;;;;;;10.83;2.73;;;4.50;99.90;;;;;;5088428;28;20606;-75
2024/01/28 04:17:45;;;;;;;4.77;1.90;;;4.50;99.90;;;;;;5069724;28;21156;-74
2024/01/28 04:20:11;;;;;;;5.40;2.28;;;4.50;99.90;;;;;;5072466;28;20183;-74
2024/01/28 04:22:37;;;;;;;6.03;2.03;;;4.50;99.90;;;;;;5053095;28;20188;-74
2024/01/28 04:25:03;;;;;;;5.47;1.70;;;4.50;99.90;;;;;;5053367;28;20668;-74
2024/01/28 04:27:28;;;;;;;12.50;2.33;;;4.50;99.90;;;;;;5069369;28;20672;-74
2024/01/28 04:29:55;;;;;;;2.60;1.33;;;4.50;99.90;;;;;;5086147;28;20988;-74
2024/01/28 04:32:20;;;;;;;4.20;1.80;;;4.50;99.90;;;;;;5089439;28;20203;-74
2024/01/28 04:34:46;;;;;;;3.60;1.80;;;4.50;99.90;;;;;;5052774;28;20253;-74
2024/01/28 04:37:12;;;;;;;6.57;2.30;;;4.40;99.90;;;;;;5054461;28;20187;-74
2024/01/28 04:39:38;;;;;;;9.67;2.13;;;4.40;99.90;;;;;;5068856;28;20181;-74
2024/01/28 04:42:04;;;;;;;5.43;2.83;;;4.40;99.90;;;;;;5072799;28;20594;-74
2024/01/28 04:44:29;;;;;;;3.88;1.70;;;4.40;99.90;;;;;;5090491;28;20297;-74
2024/01/28 04:46:57;;;;;;;4.53;1.77;;;4.40;99.90;;;;;;5090950;28;20620;-74
2024/01/28 04:49:23;;;;;;;7.32;2.03;;;4.40;99.90;;;;;;5056216;28;20637;-74
2024/01/28 04:51:50;;;;;;;9.00;2.60;;;4.40;99.90;;;;;;5086145;28;20211;-74
2024/01/28 04:54:16;;;;;;;9.02;2.60;;;4.40;99.90;;;;;;5071418;28;20242;-74
2024/01/28 04:56:42;;;;;;;7.63;1.95;;;4.30;99.90;;;;;;5090563;28;20274;-74
2024/01/28 04:59:08;;;;;;;4.10;1.70;;;4.30;99.90;;;;;;5054982;28;20266;-74
2024/01/28 05:01:35;;;;;;;5.17;1.90;;;4.30;99.90;;;;;;5052367;28;21180;-74
2024/01/28 05:04:01;;;;;;;6.07;1.90;;;4.30;99.90;;;;;;5052649;28;20256;-74
2024/01/28 05:06:34;;;;;;;7.03;1.88;;;4.30;99.90;;;;;;5072345;28;20243;-74
2024/01/28 05:09:08;;;;;;;4.57;2.00;;;4.30;99.90;;;;;;5068557;28;20219;-74
2024/01/28 05:11:34;;;;;;;4.82;1.80;;;4.30;99.90;;;;;;5090522;28;20568;-74
2024/01/28 05:14:00;;;;;;;5.20;2.13;;;4.30;99.90;;;;;;5090219;28;20355;-74
2024/01/28 05:16:27;;;;;;;3.55;1.63;;;4.40;99.90;;;;;;5072225;28;20233;-74
2024/01/28 05:18:53;;;;;;;4.78;1.30;;;4.40;99.90;;;;;;5068488;28;20259;-74
2024/01/28 05:21:19;;;;;;;4.00;2.20;;;4.40;99.90;;;;;;5089765;28;20270;-74
2024/01/28 05:23:45;;;;;;;4.40;1.60;;;4.40;99.90;;;;;;5090421;28;20939;-74
2024/01/28 05:26:12;;;;;;;8.93;2.50;;;4.40;99.90;;;;;;5095159;28;20179;-74
2024/01/28 05:28:38;;;;;;;4.63;2.00;;;4.40;99.90;;;;;;5088471;28;20192;-75
2024/01/28 05:31:04;;;;;;;8.93;2.67;;;4.40;99.90;;;;;;5091461;28;20195;-74
2024/01/28 05:33:33;;;;;;;4.60;2.47;;;4.40;99.90;;;;;;5072885;28;20272;-74
2024/01/28 05:36:00;;;;;;;5.00;2.20;;;4.40;99.90;;;;;;5076023;28;20617;-75
2024/01/28 05:38:30;;;;;;;9.43;2.65;;;4.40;99.90;;;;;;5094371;28;20173;-74
2024/01/28 05:40:56;;;;;;;8.10;1.58;;;4.40;99.90;;;;;;5093829;28;20581;-74
2024/01/28 05:43:22;;;;;;;4.72;2.15;;;4.40;99.90;;;;;;5093654;28;20578;-75
2024/01/28 05:45:48;;;;;;;5.17;2.10;;;4.40;99.90;;;;;;5094216;28;20192;-75
2024/01/28 05:48:13;;;;;;;5.70;1.97;;;4.40;99.90;;;;;;5074251;28;20172;-74
2024/01/28 05:50:39;;;;;;;8.23;1.87;;;4.40;99.90;;;;;;5072072;28;20684;-74
2024/01/28 05:53:05;;;;;;;5.87;2.00;;;4.40;99.90;;;;;;5058771;28;20199;-74
2024/01/28 05:55:30;;;;;;;5.93;2.03;;;4.40;99.90;;;;;;5093076;28;20204;-74
2024/01/28 05:57:56;;;;;;;6.33;1.77;;;4.30;99.90;;;;;;5072248;28;20180;-74
2024/01/28 06:00:22;;;;;;;6.70;2.80;;;4.30;99.90;;;;;;5074936;28;20175;-74
2024/01/28 06:02:47;;;;;;;4.37;2.17;;;4.30;99.90;;;;;;5073523;28;20275;-74
2024/01/28 06:05:13;;;;;;;7.03;2.60;;;4.30;99.90;;;;;;5093563;28;20199;-74
2024/01/28 06:07:39;;;;;;;9.90;3.50;;;4.30;99.90;;;;;;5071888;28;20187;-74
2024/01/28 06:10:05;;;;;;;8.30;2.50;;;4.30;99.90;;;;;;5071863;28;20191;-74
2024/01/28 06:12:31;;;;;;;6.50;1.92;;;4.30;99.90;;;;;;5071856;28;20204;-74
2024/01/28 06:15:02;;;;;;;7.93;2.87;;;4.30;99.90;;;;;;5089399;28;20695;-74
2024/01/28 06:17:29;;;;;;;8.32;2.70;;;4.20;99.90;;;;;;5067147;28;20187;-74
2024/01/28 06:19:55;;;;;;;3.83;2.30;;;4.30;99.90;;;;;;5054506;28;20180;-74
2024/01/28 06:22:21;;;;;;;9.90;3.23;;;4.30;99.90;;;;;;5092677;28;20180;-74
2024/01/28 06:24:46;;;;;;;7.77;3.00;;;4.20;99.90;;;;;;5071963;28;20204;-74
2024/01/28 06:27:12;;;;;;;5.33;2.30;;;4.20;99.90;;;;;;5055973;28;20180;-74
2024/01/28 06:29:37;;;;;;;8.23;2.43;;;4.20;99.90;;;;;;5092922;28;20716;-74
2024/01/28 06:32:04;;;;;;;7.17;2.97;;;4.20;99.90;;;;;;5071866;28;20211;-74
2024/01/28 06:34:29;;;;;;;3.42;2.35;;;4.20;99.90;;;;;;5071838;28;20196;-74
2024/01/28 06:36:55;;;;;;;6.50;2.60;;;4.20;99.90;;;;;;5054395;28;20634;-75
2024/01/28 06:39:21;;;;;;;9.93;3.80;;;4.20;99.90;;;;;;5073812;28;20199;-75
2024/01/28 06:41:48;;;;;;;7.03;2.50;;;4.20;99.90;;;;;;5098675;28;20190;-74
2024/01/28 06:44:13;;;;;;;10.23;2.28;;;4.20;99.90;;;;;;5073449;28;20204;-74
2024/01/28 06:46:39;;;;;;;6.90;2.60;;;4.20;99.90;;;;;;5074761;28;20179;-74
2024/01/28 06:49:05;;;;;;;5.47;2.47;;;4.30;99.90;;;;;;5070817;28;20176;-74
2024/01/28 06:51:31;;;;;;;9.80;2.28;;;4.20;99.90;;;;;;5093422;28;20711;-74
2024/01/28 06:53:57;;;;;;;4.87;2.30;;;4.30;99.90;;;;;;5075040;28;20286;-74
2024/01/28 06:56:23;;;;;;;6.15;2.30;;;4.30;99.90;;;;;;5057099;28;20177;-74
2024/01/28 06:58:49;;;;;;;5.28;2.25;;;4.20;99.90;;;;;;5070649;28;20223;-74
2024/01/28 07:01:15;;;;;;;3.80;1.90;;;4.30;99.90;;;;;;5074520;28;20629;-74
2024/01/28 07:03:40;;;;;;;8.20;2.67;;;4.30;99.90;;;;;;5071289;28;20527;-74
2024/01/28 07:06:06;;;;;;;4.30;2.50;;;4.30;99.90;;;;;;5089179;28;20308;-73
2024/01/28 07:08:32;;;;;;;3.90;1.83;;;4.20;99.90;;;;;;5092527;28;20183;-74
2024/01/28 07:10:58;;;;;;;6.70;3.03;;;4.20;99.90;;;;;;5070309;28;20242;-74
2024/01/28 07:13:24;;;;;;;6.68;1.98;;;4.30;99.90;;;;;;5049351;28;20203;-74
2024/01/28 07:15:49;;;;;;;5.80;2.40;;;4.20;99.90;;;;;;5070822;28;20212;-74
2024/01/28 07:18:15;;;;;;;4.77;2.47;;;4.20;99.90;;;;;;5075293;28;20555;-74
2024/01/28 07:20:41;;;;;;;5.90;2.43;;;4.20;99.90;;;;;;5091692;28;20577;-74
2024/01/28 07:23:07;;;;;;;5.80;1.50;;;4.20;99.90;;;;;;5092232;28;20548;-74
2024/01/28 07:25:33;;;;;;;5.40;2.53;;;4.20;99.90;;;;;;5073665;28;20205;-74
2024/01/28 07:27:58;;;;;;;7.70;2.30;;;4.20;99.90;;;;;;5074367;28;20179;-75
2024/01/28 07:30:24;;;;;;;5.70;2.23;;;4.20;99.90;;;;;;5056860;28;20548;-75
2024/01/28 07:32:50;;;;;;;6.03;3.23;;;4.20;99.90;;;;;;5074254;28;20203;-75
2024/01/28 07:35:15;;;;;;;7.20;2.77;;;4.20;99.90;;;;;;5048371;28;20231;-75
2024/01/28 07:37:42;;;;;;;8.40;3.07;;;4.20;99.90;;;;;;5092200;28;20182;-74
2024/01/28 07:40:08;;;;;;;4.53;1.83;;;4.20;99.90;;;;;;5073285;28;20207;-74
2024/01/28 07:42:34;;;;;;;6.03;2.75;;;4.20;99.90;;;;;;5091777;28;20179;-75
2024/01/28 07:45:00;;;;;;;8.07;2.70;;;4.20;99.90;;;;;;5073595;28;20187;-75
2024/01/28 07:47:26;;;;;;;4.82;2.15;;;4.20;99.90;;;;;;5073502;28;20503;-75
2024/01/28 07:49:52;;;;;;;6.87;2.77;;;4.20;99.90;;;;;;5091036;28;20182;-75
2024/01/28 07:52:17;;;;;;;5.57;2.33;;;4.20;99.90;;;;;;5073525;28;20673;-75
2024/01/28 07:54:43;;;;;;;5.40;2.50;;;4.30;99.90;;;;;;5093540;28;20622;-75
2024/01/28 07:57:10;;;;;;;4.53;2.05;;;4.30;99.90;;;;;;5075140;28;20227;-75
2024/01/28 07:59:36;;;;;;;5.50;2.70;;;4.30;99.90;;;;;;5052573;28;20223;-75
2024/01/28 08:02:02;;;;;;;4.70;1.93;;;4.40;99.90;;;;;;5069022;28;20176;-74
2024/01/28 08:04:28;;;;;;;4.07;1.60;;;4.40;99.90;;;;;;5065031;28;20230;-74
2024/01/28 08:06:54;;;;;;;5.10;1.90;;;4.40;99.90;;;;;;5053353;28;20211;-72
2024/01/28 08:09:20;;;;;;;6.50;2.00;;;4.50;99.90;;;;;;5072549;28;21455;-73
2024/01/28 08:11:46;;;;;;;4.50;2.10;;;4.60;99.90;;;;;;5091407;28;21182;-73
2024/01/28 08:14:11;;;;;;;4.37;2.00;;;4.60;99.90;;;;;;5069668;28;20399;-73
2024/01/28 08:16:37;;;;;;;3.77;1.63;;;4.60;99.90;;;;;;5069655;28;20233;-73
2024/01/28 08:19:05;;;;;;;7.10;2.20;;;4.60;99.90;;;;;;5069033;28;20755;-73
2024/01/28 08:21:31;;;;;;;5.18;1.70;;;4.70;99.90;;;;;;5055475;28;20821;-73
2024/01/28 08:23:57;;;;;;;5.73;1.87;;;4.70;99.90;;;;;;5091209;28;20195;-73
2024/01/28 08:26:23;;;;;;;5.83;1.53;;;4.70;99.90;;;;;;5071173;28;20678;-73
2024/01/28 08:28:49;;;;;;;7.03;2.22;;;4.80;99.90;;;;;;5068921;28;20686;-74
2024/01/28 08:31:14;;;;;;;6.70;2.13;;;4.80;99.90;;;;;;5088186;28;20736;-74
2024/01/28 08:33:40;;;;;;;3.70;2.03;;;4.90;99.90;;;;;;5059832;28;20195;-74
2024/01/28 08:36:06;;;;;;;5.20;2.00;;;5.00;99.90;;;;;;5090735;28;20250;-74
2024/01/28 08:38:33;;;;;;;2.80;1.40;;;5.00;99.90;;;;;;5055701;28;20580;-74
2024/01/28 08:41:00;;;;;;;5.55;2.17;;;5.10;99.90;;;;;;5072307;28;20609;-74
2024/01/28 08:43:26;;;;;;;6.78;2.28;;;5.10;99.90;;;;;;5072336;28;20167;-74
2024/01/28 08:45:52;;;;;;;8.23;2.47;;;5.10;99.90;;;;;;5049999;28;20184;-74
2024/01/28 08:48:17;;;;;;;3.77;1.93;;;5.20;99.90;;;;;;5070130;28;20176;-75
2024/01/28 08:50:44;;;;;;;5.10;2.00;;;5.20;99.90;;;;;;5055465;28;20684;-74
2024/01/28 08:53:10;;;;;;;12.65;2.38;;;5.20;99.90;;;;;;5072578;28;20540;-73
2024/01/28 08:55:35;;;;;;;4.20;1.90;;;5.30;99.90;;;;;;5090473;28;20210;-74
2024/01/28 08:58:01;;;;;;;6.60;2.13;;;5.40;99.90;;;;;;5072511;28;20168;-74
2024/01/28 09:00:27;;;;;;;7.90;2.03;;;5.50;99.90;;;;;;5071465;28;20641;-74
2024/01/28 09:02:52;;;;;;;5.73;1.87;;;5.60;99.90;;;;;;5090791;28;20259;-74
2024/01/28 09:05:18;;;;;;;5.83;2.17;;;5.60;99.90;;;;;;5069614;28;20329;-75
2024/01/28 09:07:45;;;;;;;3.53;1.63;;;5.70;99.90;;;;;;5072262;28;20742;-75
2024/01/28 09:10:11;;;;;;;7.00;2.30;;;5.90;99.90;;;;;;5071249;28;20172;-74
2024/01/28 09:12:37;;;;;;;5.27;2.17;;;5.90;99.90;;;;;;5072179;28;20290;-75
2024/01/28 09:15:02;;;;;;;3.53;1.90;;;5.90;99.90;;;;;;5055592;28;21269;-75
2024/01/28 09:17:28;;;;;;;4.43;1.90;;;6.10;99.90;;;;;;5071553;28;20169;-75
2024/01/28 09:19:55;;;;;;;7.83;2.40;;;6.10;99.90;;;;;;5069083;28;21158;-75
2024/01/28 09:22:21;;;;;;;6.80;2.00;;;6.20;99.90;;;;;;5070139;28;20179;-75
2024/01/28 09:24:47;;;;;;;4.80;2.07;;;6.30;99.90;;;;;;5070441;28;20203;-75
2024/01/28 09:27:12;;;;;;;5.20;1.73;;;6.40;99.90;;;;;;5068968;28;20171;-75
2024/01/28 09:29:38;;;;;;;8.27;2.20;;;6.50;99.90;;;;;;5086593;28;20713;-74
2024/01/28 09:32:04;;;;;;;4.13;1.90;;;6.60;99.90;;;;;;5064235;28;20207;-75
2024/01/28 09:34:30;;;;;;;6.40;2.20;;;6.70;99.90;;;;;;5070848;28;20591;-75
2024/01/28 09:36:56;;;;;;;3.30;2.27;;;6.80;99.90;;;;;;5068947;28;20221;-75
2024/01/28 09:39:21;;;;;;;6.80;2.20;;;7.00;99.90;;;;;;5070765;28;20553;-75
2024/01/28 09:41:53;;;;;;;4.87;2.30;;;7.00;99.90;;;;;;5065025;28;20270;-75
2024/01/28 09:44:18;;;;;;;4.88;1.98;;;7.10;99.90;;;;;;5071519;28;20194;-74
2024/01/28 09:46:44;;;;;;;5.13;2.23;;;7.20;99.90;;;;;;5066911;28;20175;-75
2024/01/28 09:49:11;;;;;;;4.10;1.53;;;7.30;99.90;;;;;;5068708;28;20180;-74
2024/01/28 09:51:41;;;;;;;5.25;2.10;;;7.40;99.90;;;;;;5068436;28;20212;-75
2024/01/28 09:54:09;;;;;;;2.70;1.48;;;7.50;99.90;;;;;;5075447;28;20715;-74
2024/01/28 09:56:36;;;;;;;3.80;1.77;;;7.60;99.90;;;;;;5071238;28;20175;-74
2024/01/28 09:59:04;;;;;;;3.60;2.08;;;7.70;99.90;;;;;;5089717;28;20183;-74
2024/01/28 10:01:31;;;;;;;4.00;1.65;;;7.70;99.90;;;;;;5089844;28;20566;-75
2024/01/28 10:04:00;;;;;;;5.40;2.40;;;7.80;99.90;;;;;;5051867;28;20928;-75
2024/01/28 10:06:26;;;;;;;6.60;1.58;;;7.70;99.90;;;;;;5071560;28;20228;-75
2024/01/28 10:08:52;;;;;;;4.22;1.92;;;7.80;99.90;;;;;;5089235;28;20172;-75
2024/01/28 10:11:18;;;;;;;5.40;2.17;;;7.80;99.90;;;;;;5068627;28;20196;-75
2024/01/28 10:13:45;;;;;;;6.28;2.50;;;7.80;99.90;;;;;;5071978;28;20286;-75
2024/01/28 10:16:11;;;;;;;3.95;2.20;;;7.90;99.90;;;;;;5088998;28;20164;-75
2024/01/28 10:18:37;;;;;;;6.30;2.73;;;7.90;99.90;;;;;;5074664;28;20183;-75
2024/01/28 10:21:03;;;;;;;6.50;2.43;;;8.00;99.90;;;;;;5093164;28;20228;-75
2024/01/28 10:23:28;;;;;;;4.83;2.00;;;8.00;99.90;;;;;;5094174;28;20619;-74
2024/01/28 10:26:00;;;;;;;10.20;2.87;;;8.10;99.90;;;;;;5094358;28;20179;-74
2024/01/28 10:28:29;;;;;;;4.88;2.00;;;8.20;99.90;;;;;;5071895;28;20173;-74
2024/01/28 10:30:55;;;;;;;8.05;2.53;;;8.30;99.90;;;;;;5086065;28;20187;-75
2024/01/28 10:33:21;;;;;;;11.10;3.33;;;8.30;99.90;;;;;;5072395;28;20168;-74
2024/01/28 10:35:47;;;;;;;4.33;2.03;;;8.30;99.90;;;;;;5071947;28;20164;-74
2024/01/28 10:38:20;;;;;;;7.32;3.10;;;8.30;99.90;;;;;;5058511;28;20199;-74
2024/01/28 10:40:49;;;;;;;6.15;2.42;;;8.40;99.90;;;;;;5084985;28;20233;-74
2024/01/28 10:43:16;;;;;;;7.43;2.58;;;8.40;99.90;;;;;;5093130;28;20183;-74
2024/01/28 10:45:45;;;;;;;9.60;2.13;;;8.50;99.90;;;;;;5093272;28;20531;-74
2024/01/28 10:48:16;;;;;;;4.60;2.20;;;8.50;99.90;;;;;;5071716;28;20612;-74
2024/01/28 10:50:43;;;;;;;5.10;2.17;;;8.60;99.90;;;;;;5070977;28;20274;-74
2024/01/28 10:53:09;;;;;;;4.55;2.60;;;8.70;99.90;;;;;;5088109;28;20196;-74
2024/01/28 10:55:36;;;;;;;4.47;2.10;;;8.80;99.90;;;;;;5090233;28;20204;-74
2024/01/28 10:58:04;;;;;;;5.00;1.80;;;8.90;99.90;;;;;;5071027;28;20171;-74
2024/01/28 11:00:31;;;;;;;5.72;2.08;;;8.90;99.90;;;;;;5075312;28;20172;-74
2024/01/28 11:02:58;;;;;;;8.23;3.20;;;9.00;99.90;;;;;;5072678;28;20192;-73
2024/01/28 11:05:26;;;;;;;5.97;4.35;;;9.00;99.90;;;;;;5072157;28;20199;-74
2024/01/28 11:07:59;;;;;;;7.55;2.75;;;9.00;99.90;;;;;;5070867;28;20180;-74
2024/01/28 11:10:26;;;;;;;4.15;2.25;;;9.10;99.90;;;;;;5071025;28;20183;-75
2024/01/28 11:12:52;;;;;;;4.57;2.22;;;9.10;99.90;;;;;;5074407;28;20199;-74
2024/01/28 11:15:20;;;;;;;4.83;1.73;;;9.20;99.90;;;;;;5071176;28;20198;-75
2024/01/28 11:17:47;;;;;;;4.05;1.95;;;9.20;99.90;;;;;;5066288;28;20175;-74
2024/01/28 11:20:17;;;;;;;4.25;2.08;;;9.30;99.90;;;;;;5070272;28;20180;-74
2024/01/28 11:22:54;;;;;;;11.00;3.10;;;9.40;99.90;;;;;;5074162;28;20190;-74
2024/01/28 11:25:22;;;;;;;5.32;2.40;;;9.40;99.90;;;;;;5092016;28;20248;-74
2024/01/28 11:27:49;;;;;;;5.47;2.63;;;9.60;99.90;;;;;;5084330;28;20183;-75
2024/01/28 11:30:20;;;;;;;5.68;2.10;;;9.60;99.90;;;;;;5069791;28;20271;-74
2024/01/28 11:32:46;;;;;;;7.78;2.30;;;9.70;99.90;;;;;;5062440;28;20242;-74
2024/01/28 11:35:12;;;;;;;6.43;1.90;;;9.80;99.90;;;;;;5086929;28;20183;-74
2024/01/28 11:38:04;;;;;;;4.38;2.60;;;9.90;99.90;;;;;;5091929;28;20841;-74
2024/01/28 11:40:36;;;;;;;4.55;1.90;;;10.00;99.90;;;;;;5092331;28;20679;-74
2024/01/28 11:43:05;;;;;;;3.80;2.00;;;10.10;99.90;;;;;;5091791;28;20182;-74
2024/01/28 11:45:31;;;;;;;3.25;1.80;;;10.20;99.90;;;;;;5071347;28;20200;-74
2024/01/28 11:47:57;;;;;;;4.00;2.33;;;10.30;99.90;;;;;;5070051;28;20180;-75
2024/01/28 11:50:23;;;;;;;8.80;3.03;;;10.30;99.90;;;;;;5069526;28;20606;-75
2024/01/28 11:52:49;;;;;;;4.38;2.40;;;10.40;99.90;;;;;;5087112;28;20634;-74
2024/01/28 11:55:17;;;;;;;5.30;2.33;;;10.30;99.90;;;;;;5086867;28;20202;-74
2024/01/28 11:57:48;;;;;;;4.85;2.00;;;10.40;99.90;;;;;;5072268;28;20188;-74
2024/01/28 12:00:15;;;;;;;6.15;3.25;;;10.50;99.90;;;;;;5069529;28;20176;-74
2024/01/28 12:02:41;;;;;;;5.72;2.30;;;10.50;99.90;;;;;;5090288;28;20190;-74
2024/01/28 12:05:08;;;;;;;6.03;3.28;;;10.50;99.90;;;;;;5069937;28;20250;-74
2024/01/28 12:07:36;;;;;;;6.00;3.20;;;10.60;99.90;;;;;;5070970;28;20184;-75
2024/01/28 12:10:05;;;;;;;5.68;3.17;;;10.60;99.90;;;;;;5069461;28;20547;-75
2024/01/28 12:12:34;;;;;;;8.25;2.75;;;10.70;99.90;;;;;;5069518;28;20208;-74
2024/01/28 12:15:02;;;;;;;6.80;2.60;;;10.80;99.90;;;;;;5063320;28;20192;-77
2024/01/28 12:17:27;;;;;;;7.15;2.08;;;10.80;99.90;;;;;;5075102;28;20229;-73
2024/01/28 12:19:53;;;;;;;3.90;1.93;;;10.90;99.90;;;;;;5055931;28;20171;-73
2024/01/28 12:22:20;;;;;;;8.13;2.77;;;11.00;99.90;;;;;;5039618;28;20180;-75
2024/01/28 12:24:46;;;;;;;6.05;1.95;;;10.90;99.90;;;;;;5072841;28;20974;-74
2024/01/28 12:27:13;;;;;;;4.40;2.65;;;11.10;99.90;;;;;;5069181;28;20629;-74
2024/01/28 12:29:41;;;;;;;4.57;1.80;;;11.10;99.90;;;;;;5089052;28;20274;-75
2024/01/28 12:32:10;;;;;;;3.85;1.98;;;11.10;99.90;;;;;;5069540;28;20284;-75
2024/01/28 12:34:38;;;;;;;4.85;2.80;;;11.20;99.90;;;;;;5063990;28;20202;-74
2024/01/28 12:37:04;;;;;;;6.00;2.67;;;11.20;99.90;;;;;;5072141;28;20237;-74
2024/01/28 12:39:30;;;;;;;6.50;2.20;;;11.20;99.90;;;;;;5090346;28;20172;-73
2024/01/28 12:41:56;;;;;;;5.90;2.47;;;11.20;99.90;;;;;;5090685;28;20175;-74
2024/01/28 12:44:21;;;;;;;6.10;2.00;;;11.30;99.90;;;;;;5090799;28;20195;-75
2024/01/28 12:46:47;;;;;;;5.23;1.93;;;11.30;99.90;;;;;;5052460;28;20172;-75
2024/01/28 12:49:14;;;;;;;4.60;2.13;;;11.40;99.90;;;;;;5076585;28;20167;-75
2024/01/28 12:51:40;;;;;;;5.30;1.85;;;11.50;99.90;;;;;;5071066;28;20641;-75